Time;durP1;ratioP1;P1;durP2;ratioP2;P2;SDS_P1;SDS_P2;PMS_P1;PMS_P2;Temp;Humidity;BMP_temperature;BMP_pressure;BME280_temperature;BME280_humidity;BME280_pressure;Samples;Min_cycle;Max_cycle;Signal;HPM_P1;HPM_P2
2021/06/10 00:02:26;;;;;;;18.80;8.52;;;26.10;91.10;;;;;;5078378;28;20040;-83
2021/06/10 00:04:51;;;;;;;10.82;8.50;;;26.00;91.10;;;;;;5095246;28;20052;-83
2021/06/10 00:07:18;;;;;;;9.45;7.72;;;26.00;91.00;;;;;;5078076;28;20370;-83
2021/06/10 00:09:46;;;;;;;9.75;7.75;;;26.00;91.00;;;;;;5094807;28;20024;-82
2021/06/10 00:12:14;;;;;;;9.52;7.97;;;26.00;91.00;;;;;;5078165;28;20131;-82
2021/06/10 00:14:40;;;;;;;10.30;7.90;;;26.00;91.00;;;;;;5094417;28;20111;-83
2021/06/10 00:17:06;;;;;;;8.93;7.85;;;26.00;91.00;;;;;;5094942;28;20169;-82
2021/06/10 00:19:32;;;;;;;9.10;7.47;;;26.00;91.00;;;;;;5094481;28;20028;-82
2021/06/10 00:21:58;;;;;;;9.73;7.75;;;26.00;91.00;;;;;;5077848;28;20363;-82
2021/06/10 00:24:24;;;;;;;8.98;7.45;;;26.00;91.20;;;;;;5094635;28;20038;-83
2021/06/10 00:26:49;;;;;;;8.00;7.20;;;26.00;91.00;;;;;;5094403;28;20040;-83
2021/06/10 00:29:15;;;;;;;9.13;7.60;;;26.00;91.00;;;;;;5077699;28;20032;-82
2021/06/10 00:31:41;;;;;;;9.23;7.25;;;26.00;91.00;;;;;;5094536;28;20036;-83
2021/06/10 00:34:07;;;;;;;6.95;6.25;;;26.00;91.00;;;;;;5094020;28;20058;-83
2021/06/10 00:36:32;;;;;;;8.80;7.38;;;26.00;91.00;;;;;;5093783;28;20056;-83
2021/06/10 00:38:58;;;;;;;7.82;6.65;;;26.00;91.00;;;;;;5077906;28;20468;-82
2021/06/10 00:41:24;;;;;;;9.25;7.32;;;26.00;91.00;;;;;;5077495;28;20032;-83
2021/06/10 00:43:49;;;;;;;7.60;6.80;;;26.00;91.00;;;;;;5095434;28;20494;-82
2021/06/10 00:46:16;;;;;;;7.22;6.53;;;26.00;91.00;;;;;;5094241;28;20403;-82
2021/06/10 00:48:41;;;;;;;7.93;7.07;;;26.00;91.00;;;;;;5094004;28;20024;-82
2021/06/10 00:51:07;;;;;;;7.43;6.63;;;26.00;91.00;;;;;;5094164;28;20182;-82
2021/06/10 00:53:35;;;;;;;8.32;6.72;;;26.00;91.10;;;;;;5077201;28;20389;-83
2021/06/10 00:56:05;;;;;;;8.10;7.10;;;26.00;91.10;;;;;;5095368;28;20035;-82
2021/06/10 00:58:32;;;;;;;8.15;7.15;;;25.90;91.00;;;;;;5095324;28;20035;-84
2021/06/10 01:00:58;;;;;;;8.13;6.20;;;25.90;91.00;;;;;;5093918;28;20390;-82
2021/06/10 01:03:24;;;;;;;7.60;6.53;;;25.90;91.00;;;;;;5093720;28;20056;-83
2021/06/10 01:05:54;;;;;;;6.93;6.20;;;26.00;91.10;;;;;;5093786;28;20039;-82
2021/06/10 01:08:56;;;;;;;7.03;6.25;;;26.00;91.10;;;;;;5095346;28;20074;-82
2021/06/10 01:11:46;;;;;;;7.85;6.60;;;25.90;91.10;;;;;;5093750;28;20418;-82
2021/06/10 01:14:38;;;;;;;9.63;7.30;;;26.00;91.10;;;;;;5094103;28;20037;-82
2021/06/10 01:17:05;;;;;;;6.90;5.97;;;25.90;91.10;;;;;;5101403;28;20465;-82
2021/06/10 01:19:59;;;;;;;6.90;6.20;;;25.90;91.10;;;;;;5098453;28;20127;-83
2021/06/10 01:22:27;;;;;;;6.70;6.03;;;25.90;91.10;;;;;;5095219;28;20093;-82
2021/06/10 01:25:16;;;;;;;8.32;6.63;;;25.90;91.10;;;;;;5094679;28;20043;-82
2021/06/10 01:27:49;;;;;;;7.38;6.43;;;25.90;91.10;;;;;;5093014;28;20034;-83
2021/06/10 01:30:22;;;;;;;8.45;6.50;;;25.90;91.20;;;;;;5093567;28;20024;-83
2021/06/10 01:32:52;;;;;;;7.28;5.93;;;25.90;91.30;;;;;;5093095;28;20024;-82
2021/06/10 01:35:21;;;;;;;6.03;5.43;;;25.90;91.30;;;;;;5093305;28;20024;-82
2021/06/10 01:37:48;;;;;;;6.60;5.88;;;25.90;91.30;;;;;;5092854;28;20510;-82
2021/06/10 01:40:14;;;;;;;6.35;5.65;;;25.90;91.30;;;;;;5076075;28;20495;-83
2021/06/10 01:42:42;;;;;;;7.13;5.82;;;25.90;91.30;;;;;;5094064;28;20028;-83
2021/06/10 01:45:11;;;;;;;6.45;5.65;;;25.90;91.30;;;;;;5093087;28;20123;-82
2021/06/10 01:47:40;;;;;;;7.72;5.28;;;25.90;91.30;;;;;;5091907;28;20020;-83
2021/06/10 01:50:08;;;;;;;7.53;6.00;;;25.90;91.30;;;;;;5094334;28;20024;-82
2021/06/10 01:52:36;;;;;;;7.25;6.13;;;25.90;91.30;;;;;;5094473;28;20055;-82
2021/06/10 01:55:06;;;;;;;7.10;5.75;;;25.90;91.30;;;;;;5092960;28;20478;-81
2021/06/10 01:57:32;;;;;;;6.63;5.88;;;25.80;91.20;;;;;;5092939;28;20024;-81
2021/06/10 01:59:59;;;;;;;7.43;5.72;;;25.90;91.30;;;;;;5092400;28;20032;-81
2021/06/10 02:02:26;;;;;;;6.30;5.55;;;25.90;91.30;;;;;;5093989;28;20036;-82
2021/06/10 02:04:53;;;;;;;8.10;5.57;;;25.80;91.30;;;;;;5058687;28;20130;-83
2021/06/10 02:07:19;;;;;;;6.30;5.70;;;25.90;91.30;;;;;;5093750;28;20034;-82
2021/06/10 02:09:45;;;;;;;6.20;5.60;;;25.90;91.30;;;;;;5092103;28;20036;-83
2021/06/10 02:12:12;;;;;;;6.80;6.10;;;25.80;91.30;;;;;;5092635;28;20028;-82
2021/06/10 02:14:40;;;;;;;6.25;5.13;;;25.80;91.30;;;;;;5075977;28;20035;-84
2021/06/10 02:17:07;;;;;;;6.60;5.90;;;25.80;91.40;;;;;;5094445;28;20024;-82
2021/06/10 02:19:32;;;;;;;7.20;6.47;;;25.80;91.40;;;;;;5094483;28;20028;-82
2021/06/10 02:21:58;;;;;;;7.40;6.38;;;25.80;91.40;;;;;;5075465;28;20151;-83
2021/06/10 02:24:23;;;;;;;7.53;6.40;;;25.80;91.40;;;;;;5075617;28;20040;-83
2021/06/10 02:26:49;;;;;;;6.68;5.95;;;25.80;91.40;;;;;;5092022;28;20036;-83
2021/06/10 02:29:15;;;;;;;8.25;6.05;;;25.90;91.50;;;;;;5058566;28;20036;-83
2021/06/10 02:31:40;;;;;;;6.75;5.75;;;25.90;91.50;;;;;;5093377;28;20028;-84
2021/06/10 02:34:08;;;;;;;6.40;5.75;;;25.90;91.50;;;;;;5058733;28;20028;-82
2021/06/10 02:36:38;;;;;;;8.23;6.47;;;25.80;91.40;;;;;;5092202;28;20037;-83
2021/06/10 02:39:07;;;;;;;6.95;6.25;;;25.80;91.40;;;;;;5093305;28;20024;-82
2021/06/10 02:41:37;;;;;;;7.82;5.70;;;25.80;91.50;;;;;;5092403;28;20031;-82
2021/06/10 02:44:03;;;;;;;7.00;6.15;;;25.80;91.50;;;;;;5091876;28;20059;-82
2021/06/10 02:46:29;;;;;;;7.05;5.72;;;25.80;91.50;;;;;;5092069;28;20062;-83
2021/06/10 02:48:57;;;;;;;6.32;5.72;;;25.80;91.50;;;;;;5091884;28;20535;-83
2021/06/10 02:51:31;;;;;;;6.18;5.57;;;25.80;91.50;;;;;;5092258;28;20028;-82
2021/06/10 02:53:59;;;;;;;6.15;5.47;;;25.80;91.50;;;;;;5100342;28;20035;-82
2021/06/10 02:56:27;;;;;;;7.20;6.30;;;25.80;91.50;;;;;;5101079;28;20058;-82
2021/06/10 02:58:54;;;;;;;6.30;5.63;;;25.80;91.50;;;;;;5092015;28;20093;-83
2021/06/10 03:01:20;;;;;;;6.93;5.80;;;25.80;91.50;;;;;;5092119;28;20466;-83
2021/06/10 03:03:46;;;;;;;6.47;5.47;;;25.80;91.50;;;;;;5092013;28;20087;-83
2021/06/10 03:06:12;;;;;;;7.47;6.28;;;25.80;91.50;;;;;;5076309;28;20385;-82
2021/06/10 03:08:39;;;;;;;6.60;5.90;;;25.80;91.50;;;;;;5092039;28;20060;-83
2021/06/10 03:11:06;;;;;;;6.57;5.88;;;25.80;91.50;;;;;;5075032;28;20036;-83
2021/06/10 03:13:35;;;;;;;7.63;6.68;;;25.80;91.50;;;;;;5093349;28;20060;-83
2021/06/10 03:16:02;;;;;;;8.02;6.68;;;25.80;91.50;;;;;;5092741;28;20031;-82
2021/06/10 03:18:28;;;;;;;6.25;5.65;;;25.70;91.50;;;;;;5092035;28;20049;-83
2021/06/10 03:20:57;;;;;;;7.45;6.75;;;25.80;91.50;;;;;;5091616;28;20016;-83
2021/06/10 03:23:23;;;;;;;6.63;5.68;;;25.80;91.50;;;;;;5091940;28;20062;-83
2021/06/10 03:25:49;;;;;;;7.80;6.30;;;25.70;91.50;;;;;;5092849;28;20059;-83
2021/06/10 03:28:16;;;;;;;7.30;6.47;;;25.70;91.50;;;;;;5074711;28;20032;-83
2021/06/10 03:30:41;;;;;;;7.20;6.50;;;25.70;91.50;;;;;;5091658;28;20034;-82
2021/06/10 03:33:07;;;;;;;6.40;5.75;;;25.70;91.50;;;;;;5091238;28;20036;-83
2021/06/10 03:35:35;;;;;;;7.47;6.20;;;25.70;91.50;;;;;;5067155;28;20021;-84
2021/06/10 03:38:02;;;;;;;7.10;6.32;;;25.70;91.50;;;;;;5037875;28;20035;-82
2021/06/10 03:40:28;;;;;;;7.22;6.43;;;25.70;91.60;;;;;;5072581;28;20086;-82
2021/06/10 03:42:55;;;;;;;8.48;6.70;;;25.80;91.60;;;;;;5072407;28;20033;-83
2021/06/10 03:45:21;;;;;;;7.50;6.78;;;25.70;91.60;;;;;;5037927;28;20394;-83
2021/06/10 03:47:47;;;;;;;7.20;6.20;;;25.70;91.60;;;;;;5037872;28;20024;-83
2021/06/10 03:50:13;;;;;;;7.07;6.38;;;25.70;91.60;;;;;;5038217;28;20478;-83
2021/06/10 03:52:40;;;;;;;7.30;6.60;;;25.80;91.60;;;;;;5038043;28;20037;-83
2021/06/10 03:55:07;;;;;;;8.90;7.32;;;25.70;91.50;;;;;;5037632;28;20035;-82
2021/06/10 03:57:35;;;;;;;7.53;6.72;;;25.80;91.50;;;;;;5021814;28;20127;-83
2021/06/10 04:00:03;;;;;;;8.25;7.15;;;25.80;91.50;;;;;;5037595;28;20079;-82
2021/06/10 04:02:29;;;;;;;9.20;8.02;;;25.70;91.50;;;;;;5072253;28;20112;-82
2021/06/10 04:04:55;;;;;;;9.30;8.07;;;25.70;91.50;;;;;;5020559;28;20060;-83
2021/06/10 04:07:21;;;;;;;10.43;8.48;;;25.70;91.40;;;;;;5054342;28;20025;-82
2021/06/10 04:09:46;;;;;;;10.65;8.88;;;25.70;91.40;;;;;;5021829;28;20039;-82
2021/06/10 04:12:12;;;;;;;9.98;8.93;;;25.70;91.40;;;;;;5041105;28;20419;-82
2021/06/10 04:14:37;;;;;;;10.65;8.82;;;25.70;91.40;;;;;;5075956;28;20371;-82
2021/06/10 04:17:03;;;;;;;10.98;9.68;;;25.70;91.30;;;;;;5024706;28;20417;-82
2021/06/10 04:19:29;;;;;;;9.75;8.55;;;25.70;91.40;;;;;;5075852;28;20028;-82
2021/06/10 04:21:55;;;;;;;10.65;8.50;;;25.70;91.40;;;;;;5057232;28;20029;-82
2021/06/10 04:24:21;;;;;;;9.70;8.70;;;25.70;91.40;;;;;;5057565;28;20024;-82
2021/06/10 04:26:48;;;;;;;10.93;9.43;;;25.70;91.30;;;;;;5057679;28;20032;-82
2021/06/10 04:29:13;;;;;;;10.60;8.93;;;25.70;91.40;;;;;;5058235;28;20382;-83
2021/06/10 04:31:39;;;;;;;12.40;9.95;;;25.70;91.40;;;;;;5087137;28;20080;-81
2021/06/10 04:34:05;;;;;;;11.63;9.30;;;25.70;91.40;;;;;;5064914;28;20067;-83
2021/06/10 04:36:30;;;;;;;12.93;9.90;;;25.70;91.40;;;;;;5075714;28;20025;-83
2021/06/10 04:38:56;;;;;;;10.15;9.13;;;25.70;91.40;;;;;;5057197;28;20025;-83
2021/06/10 04:41:22;;;;;;;12.35;9.85;;;25.70;91.40;;;;;;5040856;28;20036;-82
2021/06/10 04:43:47;;;;;;;12.63;9.85;;;25.70;91.40;;;;;;5057226;28;20500;-82
2021/06/10 04:46:13;;;;;;;13.45;11.05;;;25.70;91.40;;;;;;5074623;28;20037;-83
2021/06/10 04:48:39;;;;;;;12.82;10.50;;;25.70;91.30;;;;;;5040713;28;20032;-82
2021/06/10 04:51:05;;;;;;;11.55;10.30;;;25.80;91.40;;;;;;5040562;28;20074;-83
2021/06/10 04:53:31;;;;;;;13.30;10.63;;;25.70;91.30;;;;;;5057303;28;20086;-82
2021/06/10 04:55:57;;;;;;;14.18;11.43;;;25.70;91.30;;;;;;5039942;28;20032;-83
2021/06/10 04:58:23;;;;;;;13.20;10.82;;;25.80;91.40;;;;;;5057383;28;20039;-83
2021/06/10 05:00:49;;;;;;;14.07;11.20;;;25.80;91.40;;;;;;5056982;28;20054;-82
2021/06/10 05:03:20;;;;;;;14.85;11.70;;;25.80;91.40;;;;;;5056462;28;20156;-82
2021/06/10 05:05:46;;;;;;;14.50;12.13;;;25.80;91.40;;;;;;5042082;28;20028;-83
2021/06/10 05:08:12;;;;;;;14.60;12.18;;;25.80;91.30;;;;;;5039942;28;20038;-82
2021/06/10 05:10:37;;;;;;;15.15;11.95;;;25.80;91.30;;;;;;5039807;28;20489;-82
2021/06/10 05:13:03;;;;;;;15.02;12.48;;;25.80;91.30;;;;;;5056467;28;20029;-82
2021/06/10 05:15:29;;;;;;;17.02;13.68;;;25.80;91.30;;;;;;5056504;28;20394;-82
2021/06/10 05:17:54;;;;;;;15.63;12.48;;;25.80;91.30;;;;;;5056881;28;20544;-83
2021/06/10 05:20:20;;;;;;;16.00;13.23;;;25.80;91.30;;;;;;5056569;28;20470;-82
2021/06/10 05:22:46;;;;;;;16.95;13.25;;;25.80;91.20;;;;;;5039815;28;20037;-82
2021/06/10 05:25:12;;;;;;;17.08;13.30;;;25.80;91.20;;;;;;5056313;28;20032;-82
2021/06/10 05:27:38;;;;;;;16.63;12.82;;;25.80;91.40;;;;;;5039875;28;20079;-82
2021/06/10 05:30:04;;;;;;;17.25;14.05;;;25.80;91.20;;;;;;5056297;28;20398;-83
2021/06/10 05:32:30;;;;;;;18.67;14.85;;;25.80;91.20;;;;;;5056581;28;20040;-82
2021/06/10 05:34:56;;;;;;;17.38;14.55;;;25.80;91.20;;;;;;5039748;28;20024;-82
2021/06/10 05:37:22;;;;;;;17.75;14.13;;;25.90;91.20;;;;;;5074273;28;20063;-83
2021/06/10 05:39:47;;;;;;;17.98;14.88;;;25.90;91.20;;;;;;5073710;28;20089;-82
2021/06/10 05:42:14;;;;;;;19.98;15.38;;;25.90;91.20;;;;;;5055860;28;20085;-82
2021/06/10 05:44:40;;;;;;;18.80;14.93;;;25.90;91.20;;;;;;5056469;28;20029;-82
2021/06/10 05:47:05;;;;;;;20.17;15.60;;;25.90;91.00;;;;;;5056286;28;20039;-83
2021/06/10 05:49:31;;;;;;;15.98;13.95;;;25.90;91.10;;;;;;5056135;28;20052;-83
2021/06/10 05:51:57;;;;;;;17.15;13.43;;;25.90;91.10;;;;;;5039462;28;20028;-83
2021/06/10 05:54:22;;;;;;;17.23;13.65;;;25.90;91.10;;;;;;5073595;28;20020;-82
2021/06/10 05:56:51;;;;;;;15.52;12.20;;;25.90;91.20;;;;;;5079010;28;20024;-82
2021/06/10 05:59:17;;;;;;;14.40;12.07;;;25.90;91.30;;;;;;5093721;28;20051;-83
2021/06/10 06:01:42;;;;;;;11.15;9.75;;;25.90;91.40;;;;;;5075814;28;20066;-83
2021/06/10 06:04:08;;;;;;;13.68;10.25;;;25.90;91.50;;;;;;5075306;28;20056;-84
2021/06/10 06:06:33;;;;;;;10.65;9.55;;;25.90;91.50;;;;;;5074981;28;20035;-83
2021/06/10 06:08:59;;;;;;;12.02;9.10;;;26.00;91.60;;;;;;5075738;28;20035;-84
2021/06/10 06:11:25;;;;;;;10.73;7.75;;;25.90;91.50;;;;;;5094104;28;20410;-84
2021/06/10 06:14:07;;;;;;;8.45;7.43;;;26.00;91.60;;;;;;5058896;28;20393;-84
2021/06/10 06:16:51;;;;;;;9.15;7.22;;;26.00;91.50;;;;;;5093668;28;20024;-84
2021/06/10 06:19:17;;;;;;;7.03;6.20;;;26.00;91.50;;;;;;5093532;28;20523;-84
2021/06/10 06:21:43;;;;;;;6.75;5.63;;;26.00;91.50;;;;;;5075472;28;20262;-84
2021/06/10 06:24:09;;;;;;;6.88;5.47;;;26.00;91.50;;;;;;5075004;28;20032;-84
2021/06/10 06:26:35;;;;;;;5.88;4.65;;;26.00;91.50;;;;;;5093754;28;20039;-84
2021/06/10 06:29:02;;;;;;;4.82;4.22;;;26.00;91.40;;;;;;5075546;28;20040;-83
2021/06/10 06:31:29;;;;;;;5.13;4.20;;;26.00;91.40;;;;;;5075571;28;20024;-83
2021/06/10 06:33:55;;;;;;;4.20;3.60;;;26.00;91.40;;;;;;5058116;28;20110;-83
2021/06/10 06:36:21;;;;;;;4.25;3.75;;;26.00;91.40;;;;;;5074798;28;20024;-83
2021/06/10 06:38:48;;;;;;;6.50;3.58;;;26.10;91.50;;;;;;5075309;28;20050;-83
2021/06/10 06:41:14;;;;;;;4.28;3.28;;;26.00;91.40;;;;;;5074796;28;20031;-83
2021/06/10 06:43:40;;;;;;;3.53;3.08;;;26.00;91.50;;;;;;5058517;28;20032;-83
2021/06/10 06:46:09;;;;;;;3.53;2.92;;;26.10;91.50;;;;;;5058293;28;20036;-83
2021/06/10 06:48:35;;;;;;;3.30;2.72;;;26.00;91.50;;;;;;5058960;28;20439;-83
2021/06/10 06:51:02;;;;;;;2.83;2.50;;;26.10;91.50;;;;;;5075214;28;20038;-83
2021/06/10 06:53:31;;;;;;;2.70;2.35;;;26.10;91.50;;;;;;5074800;28;20039;-82
2021/06/10 06:55:58;;;;;;;3.40;2.50;;;26.10;91.50;;;;;;5093109;28;20081;-83
2021/06/10 06:58:23;;;;;;;2.80;2.50;;;26.10;91.50;;;;;;5074694;28;20522;-83
2021/06/10 07:00:49;;;;;;;2.92;2.17;;;26.10;91.50;;;;;;5093357;28;20028;-83
2021/06/10 07:03:15;;;;;;;2.30;1.85;;;26.10;91.50;;;;;;5074130;28;20059;-84
2021/06/10 07:05:41;;;;;;;2.42;1.95;;;26.10;91.60;;;;;;5074114;28;20029;-84
2021/06/10 07:08:06;;;;;;;3.00;1.70;;;26.10;91.60;;;;;;5071448;28;20051;-84
2021/06/10 07:10:32;;;;;;;1.83;1.73;;;26.10;91.60;;;;;;5074998;28;20124;-83
2021/06/10 07:12:58;;;;;;;1.80;1.65;;;26.10;91.60;;;;;;5041456;28;20028;-83
2021/06/10 07:15:24;;;;;;;1.65;1.55;;;26.20;91.60;;;;;;5092660;28;20367;-83
2021/06/10 07:17:49;;;;;;;1.75;1.58;;;26.10;91.50;;;;;;5092928;28;20028;-83
2021/06/10 07:20:15;;;;;;;2.38;1.75;;;26.10;91.50;;;;;;5057913;28;20385;-83
2021/06/10 07:22:41;;;;;;;1.70;1.50;;;26.20;91.60;;;;;;5058228;28;20397;-83
2021/06/10 07:25:08;;;;;;;1.73;1.30;;;26.20;91.80;;;;;;5041476;28;20043;-85
2021/06/10 07:27:35;;;;;;;1.15;1.10;;;26.20;91.50;;;;;;5074991;28;20035;-83
2021/06/10 07:30:01;;;;;;;2.15;1.48;;;26.10;91.50;;;;;;5074970;28;20107;-83
2021/06/10 07:32:27;;;;;;;1.67;1.10;;;26.20;91.60;;;;;;5074285;28;20166;-83
2021/06/10 07:34:53;;;;;;;1.90;1.17;;;26.20;91.50;;;;;;5058268;28;20032;-83
2021/06/10 07:37:18;;;;;;;1.13;1.02;;;26.20;91.50;;;;;;5040962;28;20394;-84
2021/06/10 07:39:44;;;;;;;1.30;1.20;;;26.20;91.50;;;;;;5092708;28;20032;-83
2021/06/10 07:42:11;;;;;;;1.20;1.10;;;26.20;91.50;;;;;;5057829;28;20035;-83
2021/06/10 07:44:36;;;;;;;1.30;1.20;;;26.20;91.50;;;;;;5074949;28;20024;-83
2021/06/10 07:47:03;;;;;;;1.30;1.20;;;26.20;91.60;;;;;;5061576;28;20035;-83
2021/06/10 07:49:29;;;;;;;1.63;1.33;;;26.20;91.60;;;;;;5078215;28;20359;-84
2021/06/10 07:51:55;;;;;;;1.33;1.20;;;26.20;91.60;;;;;;5061967;28;20617;-84
2021/06/10 07:54:21;;;;;;;1.30;1.10;;;26.20;91.60;;;;;;5078176;28;20035;-83
2021/06/10 07:56:46;;;;;;;1.23;1.13;;;26.20;91.60;;;;;;5096269;28;20405;-83
2021/06/10 07:59:13;;;;;;;1.20;1.10;;;26.20;91.60;;;;;;5095746;28;20028;-83
2021/06/10 08:01:39;;;;;;;1.23;1.00;;;26.20;91.60;;;;;;5061617;28;20441;-84
2021/06/10 08:04:05;;;;;;;2.25;1.40;;;26.20;91.60;;;;;;5096137;28;20048;-85
2021/06/10 08:06:30;;;;;;;1.77;1.33;;;26.20;91.60;;;;;;5077975;28;20524;-84
2021/06/10 08:08:56;;;;;;;1.20;1.10;;;26.20;91.70;;;;;;5078653;28;20039;-84
2021/06/10 08:11:22;;;;;;;1.25;1.15;;;26.20;91.70;;;;;;5094996;28;20032;-84
2021/06/10 08:13:48;;;;;;;1.10;1.00;;;26.20;91.70;;;;;;5078022;28;20032;-83
2021/06/10 08:16:13;;;;;;;1.27;1.02;;;26.20;91.70;;;;;;5095727;28;20024;-84
2021/06/10 08:18:39;;;;;;;0.88;0.88;;;26.20;91.70;;;;;;5077488;28;20028;-82
2021/06/10 08:21:05;;;;;;;1.20;1.13;;;26.20;91.70;;;;;;5096093;28;20056;-82
2021/06/10 08:23:31;;;;;;;1.15;0.98;;;26.20;91.70;;;;;;5060869;28;20040;-81
2021/06/10 08:26:00;;;;;;;0.90;0.90;;;26.20;91.60;;;;;;5095329;28;20027;-83
2021/06/10 08:28:28;;;;;;;0.93;0.90;;;26.20;91.70;;;;;;5061463;28;20115;-83
2021/06/10 08:30:55;;;;;;;1.33;0.90;;;26.20;91.60;;;;;;5095895;28;20028;-82
2021/06/10 08:33:20;;;;;;;1.15;1.05;;;26.20;91.60;;;;;;5077154;28;20028;-83
2021/06/10 08:35:46;;;;;;;0.85;0.85;;;26.30;91.70;;;;;;5060693;28;20027;-83
2021/06/10 08:38:12;;;;;;;0.98;0.93;;;26.30;91.70;;;;;;5060882;28;20024;-83
2021/06/10 08:40:38;;;;;;;0.90;0.80;;;26.30;91.70;;;;;;5043879;28;20036;-83
2021/06/10 08:43:06;;;;;;;0.77;0.77;;;26.30;91.70;;;;;;5095247;28;20359;-85
2021/06/10 08:45:32;;;;;;;0.82;0.82;;;26.30;91.70;;;;;;5076804;28;20119;-83
2021/06/10 08:47:58;;;;;;;0.70;0.70;;;26.30;91.70;;;;;;5044096;28;20035;-82
2021/06/10 08:50:27;;;;;;;0.70;0.70;;;26.30;91.70;;;;;;5043670;28;20119;-83
2021/06/10 08:52:55;;;;;;;0.77;0.75;;;26.30;91.70;;;;;;5077294;28;20035;-83
2021/06/10 08:55:21;;;;;;;0.70;0.70;;;26.30;91.70;;;;;;5094451;28;20028;-84
2021/06/10 08:57:47;;;;;;;0.65;0.65;;;26.30;91.70;;;;;;5095122;28;20104;-83
2021/06/10 09:00:14;;;;;;;0.77;0.60;;;26.30;91.70;;;;;;5060535;28;20488;-83
2021/06/10 09:02:40;;;;;;;0.52;0.52;;;26.30;91.70;;;;;;5076726;28;20371;-83
2021/06/10 09:05:11;;;;;;;0.65;0.60;;;26.30;91.60;;;;;;5095231;28;20063;-84
2021/06/10 09:07:38;;;;;;;0.65;0.65;;;26.30;91.60;;;;;;5076790;28;20036;-83
2021/06/10 09:10:08;;;;;;;0.50;0.50;;;26.30;91.90;;;;;;5095055;28;20091;-83
2021/06/10 09:12:57;;;;;;;0.60;0.60;;;26.30;91.60;;;;;;5094422;28;20078;-83
2021/06/10 09:15:28;;;;;;;0.50;0.50;;;26.30;91.60;;;;;;5076611;28;20032;-84
2021/06/10 09:18:00;;;;;;;0.68;0.63;;;26.30;91.60;;;;;;5076794;28;20031;-83
2021/06/10 09:20:44;;;;;;;0.50;0.50;;;26.30;91.60;;;;;;5094604;28;20024;-83
2021/06/10 09:23:13;;;;;;;;;;;26.40;91.70;;;;;;5080006;28;20039;-83
2021/06/10 09:25:40;;;;;;;0.50;0.50;;;26.30;91.60;;;;;;5077033;28;20684;-82
2021/06/10 09:28:07;;;;;;;0.57;0.57;;;26.30;91.70;;;;;;5076943;28;20021;-82
2021/06/10 09:30:48;;;;;;;0.60;0.60;;;26.30;91.70;;;;;;5094427;28;20084;-83
2021/06/10 09:33:19;;;;;;;0.60;0.60;;;26.40;91.70;;;;;;5076573;28;20036;-84
2021/06/10 09:35:46;;;;;;;0.60;0.60;;;26.40;91.70;;;;;;5094855;28;20020;-83
2021/06/10 09:38:16;;;;;;;0.70;0.70;;;26.40;91.70;;;;;;5059944;28;20033;-83
2021/06/10 09:40:42;;;;;;;0.73;0.73;;;26.40;91.70;;;;;;5094192;28;20031;-83
2021/06/10 09:43:10;;;;;;;0.80;0.77;;;26.40;91.70;;;;;;5093852;28;20101;-84
2021/06/10 09:45:37;;;;;;;0.80;0.80;;;26.40;91.70;;;;;;5075864;28;20032;-85
2021/06/10 09:48:05;;;;;;;0.77;0.77;;;26.40;91.70;;;;;;5094407;28;20103;-84
2021/06/10 09:50:42;;;;;;;0.98;0.70;;;26.40;91.70;;;;;;5075854;28;20382;-84
2021/06/10 09:53:15;;;;;;;0.60;0.60;;;26.40;91.60;;;;;;5076143;28;20081;-84
2021/06/10 09:55:52;;;;;;;0.70;0.70;;;26.40;91.60;;;;;;5093600;28;20783;-85
2021/06/10 09:58:24;;;;;;;0.80;0.70;;;26.40;91.60;;;;;;5075956;28;20028;-84
2021/06/10 10:00:51;;;;;;;0.65;0.65;;;26.40;91.70;;;;;;5092614;28;20024;-84
2021/06/10 10:03:28;;;;;;;0.70;0.70;;;26.40;91.70;;;;;;5075439;28;20064;-85
2021/06/10 10:06:22;;;;;;;0.70;0.70;;;26.40;91.70;;;;;;5076028;28;20199;-83
2021/06/10 10:08:53;;;;;;;0.50;0.50;;;26.50;91.70;;;;;;5074905;28;20024;-84
2021/06/10 10:11:20;;;;;;;0.50;0.50;;;26.40;91.70;;;;;;5094041;28;20031;-84
2021/06/10 10:13:50;;;;;;;0.70;0.70;;;26.50;91.70;;;;;;5073593;28;20401;-83
2021/06/10 10:16:23;;;;;;;0.80;0.80;;;26.50;91.70;;;;;;5093570;28;20024;-83
2021/06/10 10:18:50;;;;;;;0.60;0.60;;;26.50;91.70;;;;;;5075487;28;20377;-84
2021/06/10 10:21:16;;;;;;;0.70;0.70;;;26.50;91.90;;;;;;5075746;28;20059;-84
2021/06/10 10:23:42;;;;;;;0.95;0.60;;;26.50;91.70;;;;;;5075065;28;20028;-84
2021/06/10 10:26:08;;;;;;;0.45;0.45;;;26.40;91.70;;;;;;5059015;28;20126;-84
2021/06/10 10:28:36;;;;;;;0.50;0.50;;;26.50;91.70;;;;;;5075184;28;20036;-83
2021/06/10 10:31:06;;;;;;;0.80;0.70;;;26.50;91.80;;;;;;5058942;28;20101;-83
2021/06/10 10:33:41;;;;;;;0.80;0.70;;;26.50;91.80;;;;;;5074950;28;20035;-85
2021/06/10 10:36:07;;;;;;;0.50;0.50;;;26.50;91.80;;;;;;5075533;28;20032;-84
2021/06/10 10:38:35;;;;;;;0.68;0.68;;;26.40;91.80;;;;;;5074851;28;20028;-84
2021/06/10 10:41:09;;;;;;;0.70;0.70;;;26.50;91.90;;;;;;5075416;28;20377;-84
2021/06/10 10:43:35;;;;;;;;;;;26.50;91.90;;;;;;5075210;28;20489;-84
2021/06/10 10:46:17;;;;;;;0.52;0.52;;;26.50;91.90;;;;;;5075235;28;19974;-84
2021/06/10 10:48:44;;;;;;;0.55;0.50;;;26.40;91.90;;;;;;5075068;28;20067;-85
2021/06/10 10:51:30;;;;;;;0.50;0.50;;;26.50;92.00;;;;;;5092976;28;20089;-84
2021/06/10 10:54:00;;;;;;;0.50;0.50;;;26.50;91.90;;;;;;5075256;28;20157;-85
2021/06/10 10:56:38;;;;;;;0.57;0.52;;;26.50;92.00;;;;;;5093233;28;20020;-84
2021/06/10 10:59:17;;;;;;;0.50;0.50;;;26.50;92.00;;;;;;5075328;28;20030;-84
2021/06/10 11:02:13;;;;;;;0.68;0.68;;;26.50;92.00;;;;;;5075066;28;20024;-84
2021/06/10 11:04:52;;;;;;;0.63;0.60;;;26.50;92.00;;;;;;5071933;28;20445;-85
2021/06/10 11:07:33;;;;;;;0.50;0.50;;;26.50;92.00;;;;;;5073261;28;20103;-85
2021/06/10 11:10:19;;;;;;;0.50;0.50;;;26.50;92.10;;;;;;5071808;28;20124;-85
2021/06/10 11:12:51;;;;;;;0.57;0.50;;;26.50;92.10;;;;;;5072906;28;20093;-84
2021/06/10 11:15:34;;;;;;;0.52;0.52;;;26.50;92.10;;;;;;5071116;28;20451;-82
2021/06/10 11:18:06;;;;;;;0.40;0.40;;;26.50;92.10;;;;;;5071495;28;20025;-83
2021/06/10 11:20:38;;;;;;;0.60;0.60;;;26.50;92.10;;;;;;5059295;28;20390;-84
2021/06/10 11:23:30;;;;;;;0.40;0.40;;;26.50;92.10;;;;;;5077145;28;20037;-83
2021/06/10 11:25:58;;;;;;;0.50;0.50;;;26.50;92.10;;;;;;5070489;28;20123;-83
2021/06/10 11:28:29;;;;;;;0.50;0.50;;;26.50;92.10;;;;;;5075509;28;20024;-83
2021/06/10 11:31:21;;;;;;;0.63;0.45;;;26.50;92.10;;;;;;5075071;28;20033;-83
2021/06/10 11:33:49;;;;;;;0.40;0.40;;;26.60;92.10;;;;;;5075228;28;20028;-83
2021/06/10 11:36:16;;;;;;;0.40;0.40;;;26.50;92.10;;;;;;5073204;28;20028;-83
2021/06/10 11:38:48;;;;;;;0.57;0.57;;;26.60;92.20;;;;;;5074405;28;20028;-82
2021/06/10 11:41:15;;;;;;;0.30;0.30;;;26.60;92.20;;;;;;5076615;28;20021;-82
2021/06/10 11:43:43;;;;;;;0.50;0.50;;;26.60;92.20;;;;;;5074708;28;20044;-82
2021/06/10 11:46:11;;;;;;;0.50;0.45;;;26.60;92.20;;;;;;5076305;28;20504;-82
2021/06/10 11:48:45;;;;;;;0.40;0.40;;;26.60;92.20;;;;;;5074741;28;20051;-83
2021/06/10 11:51:22;;;;;;;0.43;0.43;;;26.60;92.20;;;;;;5075019;28;20466;-82
2021/06/10 11:53:49;;;;;;;0.40;0.40;;;26.60;92.20;;;;;;5075960;28;20119;-82
2021/06/10 11:56:22;;;;;;;0.40;0.40;;;26.60;92.20;;;;;;5076429;28;20024;-85
2021/06/10 11:58:48;;;;;;;0.50;0.50;;;26.60;92.20;;;;;;5059003;28;20032;-83
2021/06/10 12:01:14;;;;;;;0.32;0.32;;;26.60;92.20;;;;;;5041738;28;20031;-83
2021/06/10 12:03:41;;;;;;;0.30;0.30;;;26.60;92.20;;;;;;5074167;28;20072;-84
2021/06/10 12:06:12;;;;;;;0.40;0.40;;;26.60;92.30;;;;;;5058261;28;20025;-82
2021/06/10 12:08:38;;;;;;;0.32;0.32;;;26.60;92.20;;;;;;5074406;28;20115;-83
2021/06/10 12:11:06;;;;;;;0.30;0.30;;;26.70;92.30;;;;;;5074540;28;20047;-83
2021/06/10 12:13:38;;;;;;;0.32;0.32;;;26.60;92.30;;;;;;5073946;28;20025;-83
2021/06/10 12:16:06;;;;;;;0.40;0.40;;;26.60;92.20;;;;;;5073500;28;20086;-82
2021/06/10 12:18:34;;;;;;;0.30;0.30;;;26.70;92.30;;;;;;5074459;28;20119;-82
2021/06/10 12:21:03;;;;;;;0.63;0.40;;;26.60;92.30;;;;;;5074493;28;20029;-82
2021/06/10 12:23:38;;;;;;;0.38;0.38;;;26.70;92.30;;;;;;5075702;28;20105;-82
2021/06/10 12:26:14;;;;;;;0.50;0.40;;;26.70;92.30;;;;;;5075503;28;20402;-82
2021/06/10 12:28:44;;;;;;;0.40;0.40;;;26.70;92.30;;;;;;5074150;28;20437;-82
2021/06/10 12:31:20;;;;;;;0.50;0.43;;;26.70;92.30;;;;;;5074593;28;20107;-83
2021/06/10 12:33:48;;;;;;;0.40;0.40;;;26.70;92.50;;;;;;5074031;28;20073;-82
2021/06/10 12:36:20;;;;;;;0.40;0.40;;;26.70;92.30;;;;;;5075491;28;20029;-82
2021/06/10 12:38:55;;;;;;;0.57;0.50;;;26.70;92.30;;;;;;5075409;28;20040;-83
2021/06/10 12:41:26;;;;;;;0.43;0.43;;;26.70;92.30;;;;;;5074087;28;20029;-82
2021/06/10 12:44:03;;;;;;;0.40;0.40;;;26.70;92.30;;;;;;5073435;28;20163;-83
2021/06/10 12:46:31;;;;;;;0.40;0.40;;;26.70;92.30;;;;;;5073933;28;20036;-82
2021/06/10 12:49:00;;;;;;;0.50;0.50;;;26.70;92.40;;;;;;5073957;28;20451;-82
2021/06/10 12:51:31;;;;;;;0.60;0.60;;;26.70;92.40;;;;;;5073925;28;20466;-82
2021/06/10 12:54:00;;;;;;;0.40;0.40;;;26.70;92.40;;;;;;5057049;28;20028;-82